Time,TemperatureF,DewpointF,PressureIn,WindDirection,WindDirectionDegrees,WindSpeedMPH,WindSpeedGustMPH,Humidity,HourlyPrecipIn,Conditions,Clouds,dailyrainin,SoftwareType,DateUTC
2013-01-30 00:15:00,50.0,50.0,29.40,SSW,210,6.0,6.0,100,0.01,-RA,-RA,0.01,WeatherDisplay:10.37,2013-01-30 06:15:00,
2013-01-30 00:45:00,50.0,50.0,29.42,SW,230,7.0,7.0,100,0.00,-RA,-RA,0.01,WeatherDisplay:10.37,2013-01-30 06:45:00,
2013-01-30 01:15:00,42.1,40.8,29.43,NNW,330,7.0,7.0,95,0.02,-RA,-RA,0.03,WeatherDisplay:10.37,2013-01-30 07:15:00,
2013-01-30 01:45:00,42.1,40.8,29.43,NNW,330,7.0,7.0,95,0.00,-RA,-RA,0.03,WeatherDisplay:10.37,2013-01-30 07:45:00,
2013-01-30 02:15:00,41.0,38.9,29.43,NNW,340,5.0,7.0,92,0.02,-RA,-RA,0.05,WeatherDisplay:10.37,2013-01-30 08:15:00,
2013-01-30 02:45:00,41.0,38.9,29.43,NNW,340,5.0,5.0,92,0.00,-RA,-RA,0.05,WeatherDisplay:10.37,2013-01-30 08:45:00,
2013-01-30 03:15:00,39.9,38.9,29.46,WNW,290,6.0,6.0,96,0.05,-RA,-RA,0.10,WeatherDisplay:10.37,2013-01-30 09:15:00,
2013-01-30 03:45:00,39.9,38.9,29.47,West,280,8.0,8.0,96,0.00,OVC,OVC,0.10,WeatherDisplay:10.37,2013-01-30 09:45:00,
2013-01-30 04:15:00,39.0,37.7,29.33,ENE,70,10.0,10.0,95,0.06,OVC,OVC,0.16,WeatherDisplay:10.37,2013-01-30 10:15:00,
2013-01-30 04:45:00,39.0,37.7,29.33,ENE,70,10.0,10.0,95,0.00,OVC,OVC,0.16,WeatherDisplay:10.37,2013-01-30 10:45:00,
2013-01-30 05:15:00,39.9,38.9,29.33,North,360,3.0,10.0,96,0.06,OVC,OVC,0.22,WeatherDisplay:10.37,2013-01-30 11:15:00,
2013-01-30 05:45:00,39.9,38.9,29.33,North,360,3.0,3.0,96,0.00,OVC,OVC,0.22,WeatherDisplay:10.37,2013-01-30 11:45:00,
2013-01-30 06:15:00,39.9,37.8,29.35,ESE,110,3.0,3.0,92,0.00,OVC,OVC,0.22,WeatherDisplay:10.37,2013-01-30 12:15:00,
2013-01-30 06:45:00,39.9,37.8,29.32,East,90,5.0,5.0,92,0.00,OVC,OVC,0.22,WeatherDisplay:10.37,2013-01-30 12:45:00,
2013-01-30 07:15:00,39.0,39.0,29.31,ESE,120,3.0,3.0,100,0.00,OVC,OVC,0.22,WeatherDisplay:10.37,2013-01-30 13:15:00,
2013-01-30 07:45:00,39.9,38.9,29.30,SE,130,5.0,5.0,96,0.00,-RA,-RA,0.23,WeatherDisplay:10.37,2013-01-30 13:45:00,
2013-01-30 08:15:00,41.0,39.7,29.28,SE,140,7.0,7.0,95,0.03,-RA,-RA,0.26,WeatherDisplay:10.37,2013-01-30 14:15:00,
2013-01-30 08:45:00,39.9,38.9,29.31,West,260,18.0,32.0,96,0.00,-RA,-RA,0.26,WeatherDisplay:10.37,2013-01-30 14:45:00,
2013-01-30 09:15:00,37.9,36.9,29.33,West,270,16.0,32.0,96,0.06,-RA,-RA,0.32,WeatherDisplay:10.37,2013-01-30 15:15:00,
2013-01-30 09:45:00,37.9,36.9,29.33,West,270,16.0,28.0,96,0.00,-RA,-RA,0.32,WeatherDisplay:10.37,2013-01-30 15:45:00,
2013-01-30 10:15:00,37.0,34.9,29.32,West,280,13.0,28.0,92,0.06,OVC,OVC,0.38,WeatherDisplay:10.37,2013-01-30 16:15:00,
2013-01-30 10:45:00,37.0,34.9,29.32,West,280,13.0,13.0,92,0.00,OVC,OVC,0.38,WeatherDisplay:10.37,2013-01-30 16:45:00,
2013-01-30 11:15:00,36.0,33.0,29.35,West,270,16.0,16.0,89,0.00,OVC,OVC,0.38,WeatherDisplay:10.37,2013-01-30 17:15:00,
2013-01-30 11:45:00,36.0,33.0,29.35,West,270,16.0,16.0,89,0.00,OVC,OVC,0.38,WeatherDisplay:10.37,2013-01-30 17:45:00,
2013-01-30 12:15:00,35.1,31.9,29.37,West,280,16.0,16.0,88,0.01,OVC,OVC,0.39,WeatherDisplay:10.37,2013-01-30 18:15:00,
2013-01-30 12:45:00,35.1,31.9,29.37,West,280,16.0,16.0,88,0.00,OVC,OVC,0.39,WeatherDisplay:10.37,2013-01-30 18:45:00,
2013-01-30 13:15:00,33.1,28.8,29.37,WNW,290,17.0,17.0,84,0.01,OVC,OVC,0.40,WeatherDisplay:10.37,2013-01-30 19:15:00,
2013-01-30 13:45:00,33.1,28.8,29.37,WNW,290,17.0,17.0,84,0.00,OVC,OVC,0.40,WeatherDisplay:10.37,2013-01-30 19:45:00,
2013-01-30 14:15:00,30.9,27.8,29.41,WNW,300,16.0,29.0,88,0.00,OVC,OVC,0.40,WeatherDisplay:10.37,2013-01-30 20:15:00,
2013-01-30 14:45:00,28.9,25.8,29.42,WNW,290,22.0,36.0,88,0.00,-SN,-SN,0.40,WeatherDisplay:10.37,2013-01-30 20:45:00,
2013-01-30 15:15:00,28.0,23.8,29.45,WNW,290,16.0,40.0,84,0.00,-SN,-SN,0.40,WeatherDisplay:10.37,2013-01-30 21:15:00,
2013-01-30 15:45:00,28.0,23.8,29.45,WNW,290,16.0,36.0,84,0.00,-SN,-SN,0.40,WeatherDisplay:10.37,2013-01-30 21:45:00,
2013-01-30 16:15:00,28.0,21.8,29.50,NW,320,18.0,32.0,77,0.00,OVC,OVC,0.40,WeatherDisplay:10.37,2013-01-30 22:15:00,
2013-01-30 16:45:00,28.0,21.8,29.50,NW,320,18.0,29.0,77,0.00,OVC,OVC,0.40,WeatherDisplay:10.37,2013-01-30 22:45:00,
2013-01-30 17:15:00,26.1,20.7,29.55,WNW,300,20.0,35.0,80,0.00,OVC,OVC,0.40,WeatherDisplay:10.37,2013-01-30 23:15:00,
2013-01-30 17:45:00,26.1,20.7,29.55,WNW,300,20.0,35.0,80,0.00,OVC,OVC,0.40,WeatherDisplay:10.37,2013-01-30 23:45:00,
2013-01-30 18:15:00,24.1,18.8,29.61,West,280,14.0,35.0,80,0.00,OVC,OVC,0.40,WeatherDisplay:10.37,2013-01-31 00:15:00,
2013-01-30 18:45:00,24.1,18.8,29.61,West,280,14.0,25.0,80,0.00,OVC,OVC,0.40,WeatherDisplay:10.37,2013-01-31 00:45:00,
2013-01-30 19:15:00,23.0,15.9,29.65,WNW,290,15.0,33.0,74,0.00,OVC,OVC,0.40,WeatherDisplay:10.37,2013-01-31 01:15:00,
2013-01-30 19:45:00,23.0,15.9,29.65,WNW,290,15.0,33.0,74,0.00,OVC,OVC,0.40,WeatherDisplay:10.37,2013-01-31 01:45:00,
2013-01-30 20:15:00,21.0,12.8,29.68,WNW,300,21.0,44.0,70,0.00,OVC,OVC,0.40,WeatherDisplay:10.37,2013-01-31 02:15:00,
2013-01-30 20:45:00,21.0,12.8,29.68,WNW,300,21.0,44.0,70,0.00,OVC,OVC,0.40,WeatherDisplay:10.37,2013-01-31 02:45:00,
2013-01-30 21:15:00,21.0,14.9,29.71,WNW,290,14.0,44.0,77,0.00,-SN,-SN,0.40,WeatherDisplay:10.37,2013-01-31 03:15:00,
2013-01-30 21:45:00,21.0,12.8,29.72,WNW,300,16.0,35.0,70,0.00,OVC,OVC,0.40,WeatherDisplay:10.37,2013-01-31 03:45:00,
2013-01-30 22:15:00,21.0,13.7,29.73,WNW,300,13.0,35.0,73,0.00,OVC,OVC,0.40,WeatherDisplay:10.37,2013-01-31 04:15:00,
2013-01-30 22:45:00,21.0,13.7,29.73,WNW,300,13.0,30.0,73,0.00,OVC,OVC,0.40,WeatherDisplay:10.37,2013-01-31 04:45:00,
2013-01-30 23:15:00,19.0,10.9,29.77,WNW,300,14.0,32.0,70,0.00,-SN,-SN,0.40,WeatherDisplay:10.37,2013-01-31 05:15:00,
2013-01-30 23:45:00,19.0,10.9,29.77,WNW,300,14.0,32.0,70,0.00,-SN,-SN,0.40,WeatherDisplay:10.37,2013-01-31 05:45:00,